createdAt,value
2019-02-21T20:33:06.077Z,99947.00
2019-02-21T20:35:34.308Z,99959.20
2019-02-21T20:38:01.522Z,99965.08
2019-02-21T20:40:28.462Z,99959.66
2019-02-21T20:42:55.304Z,99959.66
2019-02-21T20:45:24.599Z,99958.30
2019-02-21T20:47:52.775Z,99964.52
2019-02-21T20:50:19.685Z,99963.69
2019-02-21T20:52:46.683Z,99962.03
2019-02-21T20:55:14.130Z,99970.16
2019-02-21T20:57:41.353Z,99971.23
2019-02-21T21:00:17.507Z,99975.08
2019-02-21T21:02:44.522Z,99981.30
2019-02-21T21:05:11.379Z,99977.23
2019-02-21T21:07:38.395Z,99978.24
2019-02-21T21:10:15.336Z,99986.30
2019-02-21T21:12:42.157Z,99984.91
2019-02-21T21:15:11.368Z,99985.47
2019-02-21T21:17:38.230Z,99995.45
2019-02-21T21:20:16.630Z,99990.88
2019-02-21T21:22:40.166Z,99993.03
2019-02-21T21:25:11.654Z,99994.34
2019-02-21T21:27:38.442Z,99997.33
2019-02-21T21:30:09.945Z,99997.37
2019-02-21T21:32:37.674Z,100004.17
2019-02-21T21:35:05.364Z,100005.48
2019-02-21T21:37:32.478Z,100009.47
2019-02-21T21:39:59.448Z,100008.31
2019-02-21T21:42:26.461Z,100013.53
2019-02-21T21:44:53.619Z,100018.15
2019-02-21T21:47:20.516Z,100013.33
2019-02-21T21:49:47.303Z,100023.91
2019-02-21T21:52:16.260Z,100022.00
2019-02-21T21:54:43.191Z,100023.08
2019-02-21T21:57:10.252Z,100024.71
2019-02-21T21:59:37.491Z,100028.45
2019-02-21T22:02:06.353Z,100031.44
2019-02-21T22:04:33.128Z,100026.03
2019-02-21T22:07:00.041Z,100032.28
2019-02-21T22:09:26.862Z,100030.95
2019-02-21T22:11:54.057Z,100025.78
2019-02-21T22:14:20.946Z,100031.16
2019-02-21T22:16:48.431Z,100029.81
2019-02-21T22:19:15.209Z,100031.72
2019-02-21T22:21:42.418Z,100031.16
2019-02-21T22:24:09.621Z,100027.06
2019-02-21T22:26:36.495Z,100033.83
2019-02-21T22:29:03.273Z,100026.78
2019-02-21T22:31:30.566Z,100028.09
2019-02-21T22:33:57.536Z,100028.14
2019-02-21T22:36:24.963Z,100031.72
2019-02-21T22:38:52.602Z,100027.42
2019-02-21T22:41:21.654Z,100030.96
2019-02-21T22:43:48.572Z,100034.50
2019-02-21T22:46:15.452Z,100036.14
2019-02-21T22:48:47.250Z,100037.24
2019-02-21T22:51:12.989Z,100044.84
2019-02-21T22:53:40.382Z,100040.99
2019-02-21T22:56:07.389Z,100042.55
2019-02-21T22:58:44.470Z,100046.37
2019-02-21T23:01:23.258Z,100046.12
2019-02-21T23:03:56.074Z,100052.38
2019-02-21T23:06:39.175Z,100049.15
2019-02-21T23:09:08.865Z,100056.72
2019-02-21T23:11:35.808Z,100060.78
2019-02-21T23:14:02.897Z,100057.23
2019-02-21T23:16:30.003Z,100066.43
2019-02-21T23:18:57.689Z,100072.44
2019-02-21T23:21:24.895Z,100074.07
2019-02-21T23:23:52.007Z,100065.39
2019-02-21T23:26:18.853Z,100065.12
2019-02-21T23:28:45.789Z,100064.36
2019-02-21T23:31:12.797Z,100069.77
2019-02-21T23:33:41.995Z,100067.90
2019-02-21T23:36:09.192Z,100068.98
2019-02-21T23:38:36.245Z,100064.43
2019-02-21T23:41:03.672Z,100062.83
2019-02-21T23:43:30.554Z,100060.95
2019-02-21T23:45:57.996Z,100064.22
2019-02-21T23:48:25.459Z,100066.13
2019-02-21T23:50:53.061Z,100062.34
2019-02-21T23:53:20.261Z,100064.78
2019-02-21T23:55:47.176Z,100058.77
2019-02-21T23:58:16.304Z,100058.14
